createdAt,value
2022-10-10T00:01:43.505Z,2.12
2022-10-10T00:04:12.358Z,2.04
2022-10-10T00:06:40.964Z,1.97
2022-10-10T00:09:09.880Z,1.95
2022-10-10T00:11:38.396Z,1.91
2022-10-10T00:14:08.836Z,1.86
2022-10-10T00:16:37.544Z,1.78
2022-10-10T00:19:06.325Z,1.77
2022-10-10T00:21:35.045Z,1.81
2022-10-10T00:24:03.780Z,1.83
2022-10-10T00:26:32.868Z,1.80
2022-10-10T00:29:01.418Z,1.80
2022-10-10T00:31:31.511Z,1.76
2022-10-10T00:33:59.991Z,1.71
2022-10-10T00:36:28.531Z,1.68
2022-10-10T00:38:57.388Z,1.65
2022-10-10T00:41:27.067Z,1.60
2022-10-10T00:44:07.937Z,1.55
2022-10-10T00:46:38.386Z,1.52
2022-10-10T00:49:10.806Z,1.51
2022-10-10T00:51:40.369Z,1.48
2022-10-10T00:54:11.373Z,1.44
2022-10-10T00:56:45.011Z,1.42
2022-10-10T00:59:13.863Z,1.40
2022-10-10T01:01:44.388Z,1.38
2022-10-10T01:04:34.728Z,1.41
2022-10-10T01:07:07.256Z,1.40
2022-10-10T01:09:38.069Z,1.35
2022-10-10T01:12:19.219Z,1.29
2022-10-10T01:14:52.819Z,1.30
2022-10-10T01:17:31.200Z,1.26
2022-10-10T01:20:32.965Z,1.24
2022-10-10T01:23:25.376Z,1.27
2022-10-10T01:26:05.813Z,1.28
2022-10-10T01:28:44.815Z,1.27
2022-10-10T01:31:17.014Z,1.24
2022-10-10T01:33:56.274Z,1.23
2022-10-10T01:36:32.730Z,1.27
2022-10-10T01:39:07.729Z,1.24
2022-10-10T01:41:42.626Z,1.22
2022-10-10T01:44:12.816Z,1.19
2022-10-10T01:46:43.490Z,1.16
2022-10-10T01:49:12.412Z,1.14
2022-10-10T01:51:59.033Z,1.14
2022-10-10T01:54:38.570Z,1.13
2022-10-10T01:57:20.654Z,1.13
2022-10-10T01:59:54.931Z,1.12
2022-10-10T02:02:31.683Z,1.09
2022-10-10T02:05:05.900Z,1.07
2022-10-10T02:07:41.250Z,1.08
2022-10-10T02:10:11.596Z,1.10
2022-10-10T02:12:41.755Z,1.10
2022-10-10T02:15:15.648Z,1.04
2022-10-10T02:17:48.994Z,1.01
2022-10-10T02:20:22.106Z,1.02
2022-10-10T02:22:52.160Z,0.96
2022-10-10T02:25:24.877Z,1.02
2022-10-10T02:28:05.222Z,1.12
2022-10-10T02:30:37.955Z,1.09
2022-10-10T02:33:08.778Z,1.06
2022-10-10T02:35:41.763Z,0.99
2022-10-10T02:38:13.510Z,0.88
2022-10-10T02:40:43.141Z,0.86
2022-10-10T02:43:13.419Z,0.85
2022-10-10T02:45:44.079Z,0.77
2022-10-10T02:48:12.685Z,0.80
2022-10-10T02:50:41.286Z,0.91
2022-10-10T02:53:09.767Z,0.99
2022-10-10T02:55:38.751Z,1.02
2022-10-10T02:58:07.394Z,1.02
2022-10-10T03:00:36.077Z,0.99
2022-10-10T03:03:06.166Z,0.95
2022-10-10T03:05:34.629Z,0.99
2022-10-10T03:08:05.857Z,1.17
2022-10-10T03:10:36.597Z,1.20
2022-10-10T03:13:05.464Z,1.30
2022-10-10T03:15:33.993Z,1.27
2022-10-10T03:18:02.917Z,1.32
2022-10-10T03:20:32.787Z,1.26
2022-10-10T03:23:01.527Z,1.12
2022-10-10T03:25:30.193Z,1.03
2022-10-10T03:27:58.711Z,1.05
2022-10-10T03:30:27.329Z,1.07
2022-10-10T03:32:55.810Z,1.13
2022-10-10T03:35:24.707Z,1.01
2022-10-10T03:37:54.863Z,0.91
2022-10-10T03:40:23.754Z,0.92
2022-10-10T03:42:53.148Z,0.91
2022-10-10T03:45:23.029Z,0.94
2022-10-10T03:47:51.664Z,0.94
2022-10-10T03:50:20.397Z,0.92
2022-10-10T03:52:49.032Z,0.83
2022-10-10T03:55:19.539Z,0.77
2022-10-10T03:57:48.308Z,0.73
2022-10-10T04:00:17.139Z,0.74
2022-10-10T04:02:45.803Z,0.77
2022-10-10T04:05:14.628Z,0.73
2022-10-10T04:07:43.212Z,0.76
2022-10-10T04:10:11.898Z,0.79
2022-10-10T04:12:42.136Z,0.85
2022-10-10T04:15:12.056Z,0.97
2022-10-10T04:17:40.663Z,1.04
2022-10-10T04:20:09.884Z,1.10
2022-10-10T04:22:38.535Z,1.12
2022-10-10T04:25:07.554Z,1.11
2022-10-10T04:27:36.261Z,1.11
2022-10-10T04:30:07.330Z,1.14
2022-10-10T04:32:36.215Z,1.14
2022-10-10T04:35:05.543Z,1.17
2022-10-10T04:37:35.439Z,1.26
2022-10-10T04:40:04.148Z,1.33
2022-10-10T04:42:32.699Z,1.32
2022-10-10T04:45:01.236Z,1.34
2022-10-10T04:47:32.084Z,1.38
2022-10-10T04:50:00.502Z,1.42
2022-10-10T04:52:29.293Z,1.42
2022-10-10T04:54:57.820Z,1.45
2022-10-10T04:57:26.765Z,1.50
2022-10-10T04:59:55.728Z,1.49
2022-10-10T05:02:24.727Z,1.46
2022-10-10T05:04:55.482Z,1.45
2022-10-10T05:07:24.136Z,1.47
2022-10-10T05:09:52.766Z,1.50
2022-10-10T05:12:21.413Z,1.55
2022-10-10T05:14:51.233Z,1.58
2022-10-10T05:17:19.862Z,1.61
2022-10-10T05:19:49.456Z,1.63
2022-10-10T05:22:19.516Z,1.66
2022-10-10T05:24:48.193Z,1.71
2022-10-10T05:27:16.694Z,1.75
2022-10-10T05:29:46.048Z,1.78
2022-10-10T05:32:14.818Z,1.86
2022-10-10T05:34:43.601Z,1.93
2022-10-10T05:37:12.694Z,2.05
2022-10-10T05:39:42.669Z,2.16
2022-10-10T05:42:11.468Z,2.26
2022-10-10T05:44:40.450Z,2.34
2022-10-10T05:47:09.628Z,2.44
2022-10-10T05:49:39.083Z,2.48
2022-10-10T05:52:07.862Z,2.54
2022-10-10T05:54:36.601Z,2.66
2022-10-10T05:57:06.840Z,2.67
2022-10-10T05:59:35.474Z,2.71
2022-10-10T06:02:04.073Z,2.78
2022-10-10T06:04:32.745Z,2.80
2022-10-10T06:07:01.345Z,2.82
2022-10-10T06:09:30.058Z,2.86
2022-10-10T06:11:58.859Z,2.93
2022-10-10T06:14:29.489Z,3.01
2022-10-10T06:16:58.031Z,3.10
2022-10-10T06:19:26.586Z,3.19
2022-10-10T06:21:55.385Z,3.28
2022-10-10T06:24:24.112Z,3.39
2022-10-10T06:26:52.749Z,3.47
2022-10-10T06:29:21.280Z,3.54
2022-10-10T06:31:51.415Z,3.65
2022-10-10T06:34:20.115Z,3.78
2022-10-10T06:36:50.881Z,3.90
2022-10-10T06:39:19.519Z,4.02
2022-10-10T06:41:50.278Z,4.15
2022-10-10T06:44:20.597Z,4.30
2022-10-10T06:46:50.469Z,4.45
2022-10-10T06:49:19.090Z,4.59
2022-10-10T06:51:47.854Z,4.74
2022-10-10T06:54:17.281Z,4.91
2022-10-10T06:56:46.057Z,5.18
2022-10-10T06:59:14.692Z,5.57
2022-10-10T07:01:43.579Z,5.87
2022-10-10T07:04:14.398Z,6.11
2022-10-10T07:06:43.074Z,6.29
2022-10-10T07:09:11.645Z,6.42
2022-10-10T07:11:45.454Z,6.56
2022-10-10T07:14:15.318Z,6.68
2022-10-10T07:16:43.933Z,6.81
2022-10-10T07:19:14.050Z,6.97
2022-10-10T07:21:44.665Z,7.04
2022-10-10T07:24:13.288Z,7.09
2022-10-10T07:26:41.902Z,7.17
2022-10-10T07:29:10.489Z,7.30
2022-10-10T07:31:39.105Z,7.40
2022-10-10T07:34:08.001Z,7.50
2022-10-10T07:36:38.382Z,7.61
2022-10-10T07:39:07.126Z,7.71
2022-10-10T07:41:35.887Z,7.80
2022-10-10T07:44:04.979Z,7.94
2022-10-10T07:46:33.561Z,8.08
2022-10-10T07:49:02.295Z,8.22
2022-10-10T07:51:31.072Z,8.31
2022-10-10T07:54:01.698Z,8.47
2022-10-10T07:56:30.447Z,8.74
2022-10-10T07:59:00.310Z,8.93
2022-10-10T08:01:28.982Z,9.24
2022-10-10T08:03:58.641Z,10.05
2022-10-10T08:06:27.375Z,11.47
2022-10-10T08:08:55.967Z,11.97
2022-10-10T08:11:25.991Z,13.52
2022-10-10T08:13:54.834Z,15.17
2022-10-10T08:16:24.472Z,16.10
2022-10-10T08:18:54.154Z,16.03
2022-10-10T08:21:23.011Z,15.28
2022-10-10T08:23:51.938Z,14.67
2022-10-10T08:26:21.187Z,14.42
2022-10-10T08:28:51.336Z,14.48
2022-10-10T08:31:22.904Z,14.55
2022-10-10T08:33:53.496Z,14.62
2022-10-10T08:36:24.981Z,14.79
2022-10-10T08:38:59.657Z,15.21
2022-10-10T08:41:41.560Z,16.29
2022-10-10T08:44:20.722Z,17.95
2022-10-10T08:46:53.947Z,19.29
2022-10-10T08:49:28.428Z,20.48
2022-10-10T08:52:03.097Z,21.16
2022-10-10T08:54:34.371Z,20.92
2022-10-10T08:57:06.830Z,19.70
2022-10-10T08:59:41.257Z,18.84
2022-10-10T09:02:53.045Z,19.02
2022-10-10T09:05:26.378Z,18.71
2022-10-10T09:08:26.760Z,18.66
2022-10-10T09:10:59.586Z,18.94
2022-10-10T09:13:36.163Z,18.87
2022-10-10T09:16:15.932Z,18.72
2022-10-10T09:18:55.206Z,18.74
2022-10-10T09:21:27.919Z,18.94
2022-10-10T09:24:04.523Z,19.50
2022-10-10T09:26:40.220Z,20.40
2022-10-10T09:29:25.132Z,21.54
2022-10-10T09:32:00.000Z,22.46
2022-10-10T09:34:36.858Z,23.29
2022-10-10T09:37:16.409Z,24.10
2022-10-10T09:39:59.726Z,24.74
2022-10-10T09:42:35.324Z,25.10
2022-10-10T09:45:05.539Z,25.43
2022-10-10T09:47:35.888Z,25.48
2022-10-10T09:50:05.510Z,25.44
2022-10-10T09:52:35.224Z,25.45
2022-10-10T09:55:16.118Z,25.49
2022-10-10T09:57:44.848Z,25.67
2022-10-10T10:00:37.914Z,25.80
2022-10-10T10:03:16.555Z,25.79
2022-10-10T10:05:54.447Z,25.60
2022-10-10T10:08:29.269Z,25.56
2022-10-10T10:11:02.145Z,25.57
2022-10-10T10:13:34.043Z,25.55
2022-10-10T10:16:08.481Z,25.47
2022-10-10T10:18:43.108Z,25.47
2022-10-10T10:21:23.778Z,25.38
2022-10-10T10:23:55.498Z,25.32
2022-10-10T10:26:27.637Z,25.35
2022-10-10T10:28:59.141Z,25.70
2022-10-10T10:31:53.004Z,26.22
2022-10-10T10:34:47.379Z,26.81
2022-10-10T10:37:22.583Z,27.29
2022-10-10T10:40:29.278Z,27.84
2022-10-10T10:43:34.170Z,28.47
2022-10-10T10:46:12.005Z,28.85
2022-10-10T10:48:46.843Z,29.25
2022-10-10T10:51:44.401Z,29.55
2022-10-10T10:54:40.405Z,29.75
2022-10-10T10:57:32.917Z,29.93
2022-10-10T11:00:22.246Z,30.11
2022-10-10T11:03:35.170Z,30.24
2022-10-10T11:06:14.863Z,30.45
2022-10-10T11:08:59.230Z,30.62
2022-10-10T11:11:47.992Z,30.72
2022-10-10T11:14:29.846Z,30.67
2022-10-10T11:17:05.010Z,30.79
2022-10-10T11:19:38.895Z,30.76
2022-10-10T11:22:14.992Z,30.83
2022-10-10T11:24:52.668Z,30.87
2022-10-10T11:27:27.836Z,30.81
2022-10-10T11:30:04.767Z,30.81
2022-10-10T11:32:40.969Z,31.10
2022-10-10T11:35:20.029Z,31.31
2022-10-10T11:38:07.099Z,31.33
2022-10-10T11:40:54.702Z,31.39
2022-10-10T11:43:33.301Z,31.34
2022-10-10T11:46:10.264Z,31.43
2022-10-10T11:48:49.153Z,31.50
2022-10-10T11:51:37.329Z,31.46
2022-10-10T11:54:14.090Z,31.38
2022-10-10T11:56:52.446Z,31.41
2022-10-10T11:59:32.127Z,31.49
2022-10-10T12:02:11.339Z,31.52
2022-10-10T12:04:41.222Z,31.70
2022-10-10T12:07:18.359Z,31.63
2022-10-10T12:09:54.749Z,31.58
2022-10-10T12:12:34.482Z,31.47
2022-10-10T12:15:06.831Z,31.44
2022-10-10T12:17:45.293Z,31.40
2022-10-10T12:20:34.188Z,31.23
2022-10-10T12:23:24.440Z,31.02
2022-10-10T12:25:53.267Z,30.80
2022-10-10T12:28:30.550Z,30.69
2022-10-10T12:31:35.645Z,30.59
2022-10-10T12:34:40.061Z,30.45
2022-10-10T12:37:22.918Z,30.41
2022-10-10T12:40:30.687Z,30.49
2022-10-10T12:43:08.962Z,30.54
2022-10-10T12:46:26.320Z,30.43
2022-10-10T12:49:21.099Z,30.28
2022-10-10T12:52:05.373Z,30.37
2022-10-10T12:54:41.080Z,30.39
2022-10-10T12:57:18.137Z,30.45
2022-10-10T12:59:47.668Z,30.56
2022-10-10T13:02:21.725Z,30.54
2022-10-10T13:04:54.758Z,30.56
2022-10-10T13:07:24.663Z,30.57
2022-10-10T13:09:56.906Z,30.44
2022-10-10T13:12:28.144Z,30.40
2022-10-10T13:14:59.571Z,30.44
2022-10-10T13:17:30.882Z,30.47
2022-10-10T13:20:02.145Z,30.37
2022-10-10T13:22:32.928Z,30.31
2022-10-10T13:25:11.688Z,30.20
2022-10-10T13:27:41.828Z,30.11
2022-10-10T13:30:26.452Z,29.89
2022-10-10T13:32:57.522Z,29.79
2022-10-10T13:35:29.166Z,29.68
2022-10-10T13:38:01.215Z,29.51
2022-10-10T13:40:30.888Z,29.19
2022-10-10T13:43:00.113Z,29.08
2022-10-10T13:45:37.244Z,28.94
2022-10-10T13:48:18.689Z,28.69
2022-10-10T13:51:14.940Z,27.99
2022-10-10T13:53:48.998Z,25.69
2022-10-10T13:56:24.758Z,23.45
2022-10-10T13:58:55.951Z,22.12
2022-10-10T14:01:34.723Z,21.46
2022-10-10T14:04:15.834Z,21.80
2022-10-10T14:06:57.830Z,22.95
2022-10-10T14:09:32.089Z,23.29
2022-10-10T14:12:03.163Z,22.85
2022-10-10T14:14:36.331Z,22.76
2022-10-10T14:17:06.825Z,22.29
2022-10-10T14:19:35.566Z,21.25
2022-10-10T14:22:05.659Z,19.99
2022-10-10T14:24:34.887Z,18.98
2022-10-10T14:27:13.554Z,18.18
2022-10-10T14:29:42.387Z,17.62
2022-10-10T14:32:11.675Z,17.25
2022-10-10T14:34:40.851Z,16.97
2022-10-10T14:37:18.179Z,16.71
2022-10-10T14:39:47.750Z,16.44
2022-10-10T14:42:22.729Z,16.29
2022-10-10T14:44:51.663Z,16.15
2022-10-10T14:47:22.024Z,16.06
2022-10-10T14:49:52.770Z,15.99
2022-10-10T14:52:23.316Z,15.92
2022-10-10T14:54:51.831Z,15.83
2022-10-10T14:57:22.587Z,15.74
2022-10-10T14:59:51.328Z,15.67
2022-10-10T15:02:21.942Z,15.57
2022-10-10T15:04:53.170Z,15.42
2022-10-10T15:07:23.687Z,15.26
2022-10-10T15:10:19.228Z,15.09
2022-10-10T15:12:43.442Z,14.89
2022-10-10T15:15:13.487Z,14.82
2022-10-10T15:17:42.836Z,14.73
2022-10-10T15:20:13.968Z,14.52
2022-10-10T15:22:48.118Z,14.30
2022-10-10T15:25:19.510Z,14.14
2022-10-10T15:27:51.128Z,14.00
2022-10-10T15:30:19.801Z,13.83
2022-10-10T15:32:51.592Z,13.65
2022-10-10T15:35:23.743Z,13.45
2022-10-10T15:37:55.957Z,13.26
2022-10-10T15:40:25.508Z,13.10
2022-10-10T15:42:54.604Z,12.92
2022-10-10T15:45:51.052Z,12.74
2022-10-10T15:48:12.267Z,12.53
2022-10-10T15:50:43.603Z,12.38
2022-10-10T15:53:14.453Z,12.21
2022-10-10T15:55:44.600Z,12.07
2022-10-10T15:58:13.440Z,11.92
2022-10-10T16:00:43.949Z,11.76
2022-10-10T16:03:18.635Z,11.59
2022-10-10T16:05:48.810Z,11.47
2022-10-10T16:08:19.661Z,11.34
2022-10-10T16:10:48.709Z,11.23
2022-10-10T16:13:17.707Z,11.13
2022-10-10T16:15:46.399Z,11.03
2022-10-10T16:18:15.039Z,10.93
2022-10-10T16:20:44.041Z,10.81
2022-10-10T16:23:12.742Z,10.71
2022-10-10T16:25:43.332Z,10.61
2022-10-10T16:28:11.923Z,10.51
2022-10-10T16:30:41.147Z,10.39
2022-10-10T16:33:09.684Z,10.27
2022-10-10T16:35:38.974Z,10.18
2022-10-10T16:38:07.670Z,10.06
2022-10-10T16:40:37.648Z,9.95
2022-10-10T16:43:07.888Z,9.84
2022-10-10T16:45:41.736Z,9.73
2022-10-10T16:48:10.361Z,9.63
2022-10-10T16:50:42.713Z,9.52
2022-10-10T16:53:12.427Z,9.45
2022-10-10T16:55:43.445Z,9.39
2022-10-10T16:58:13.670Z,9.34
2022-10-10T17:00:44.088Z,9.32
2022-10-10T17:03:13.180Z,9.28
2022-10-10T17:05:46.988Z,9.25
2022-10-10T17:08:18.847Z,9.21
2022-10-10T17:10:47.531Z,9.19
2022-10-10T17:13:17.947Z,9.15
2022-10-10T17:15:47.062Z,9.16
2022-10-10T17:18:17.598Z,9.13
2022-10-10T17:20:46.832Z,9.08
2022-10-10T17:23:17.289Z,9.01
2022-10-10T17:25:47.919Z,8.95
2022-10-10T17:28:18.607Z,8.88
2022-10-10T17:30:50.322Z,8.80
2022-10-10T17:33:20.962Z,8.74
2022-10-10T17:35:51.055Z,8.68
2022-10-10T17:38:38.451Z,8.65
2022-10-10T17:41:11.292Z,8.63
2022-10-10T17:43:45.405Z,8.59
2022-10-10T17:46:36.874Z,8.56
2022-10-10T17:49:07.001Z,8.53
2022-10-10T17:51:37.443Z,8.51
2022-10-10T17:54:10.309Z,8.49
2022-10-10T17:56:40.807Z,8.47
2022-10-10T17:59:11.177Z,8.41
2022-10-10T18:01:41.433Z,8.35
2022-10-10T18:04:10.279Z,8.28
2022-10-10T18:06:39.628Z,8.27
2022-10-10T18:09:08.653Z,8.23
2022-10-10T18:11:37.628Z,8.17
2022-10-10T18:14:06.851Z,8.16
2022-10-10T18:16:37.441Z,8.15
2022-10-10T18:19:07.776Z,8.15
2022-10-10T18:21:37.113Z,8.13
2022-10-10T18:24:06.264Z,8.12
2022-10-10T18:26:35.225Z,8.11
2022-10-10T18:29:06.650Z,8.07
2022-10-10T18:31:38.527Z,8.05
2022-10-10T18:34:08.818Z,8.01
2022-10-10T18:36:38.879Z,7.99
2022-10-10T18:39:09.737Z,7.95
2022-10-10T18:41:39.321Z,7.92
2022-10-10T18:44:10.306Z,7.92
2022-10-10T18:46:41.141Z,7.92
2022-10-10T18:49:11.973Z,7.91
2022-10-10T18:51:43.322Z,7.88
2022-10-10T18:54:14.931Z,7.87
2022-10-10T18:56:45.192Z,7.86
2022-10-10T18:59:15.961Z,7.87
2022-10-10T19:01:47.214Z,7.87
2022-10-10T19:04:17.521Z,7.91
2022-10-10T19:06:46.493Z,7.90
2022-10-10T19:09:18.421Z,7.83
2022-10-10T19:11:50.186Z,7.77
2022-10-10T19:14:19.743Z,7.74
2022-10-10T19:16:53.041Z,7.74
2022-10-10T19:19:21.855Z,7.74
2022-10-10T19:21:51.267Z,7.74
2022-10-10T19:24:21.622Z,7.72
2022-10-10T19:26:53.598Z,7.72
2022-10-10T19:29:25.131Z,7.71
2022-10-10T19:31:56.348Z,7.66
2022-10-10T19:34:25.844Z,7.67
2022-10-10T19:36:57.774Z,7.68
2022-10-10T19:39:26.839Z,7.70
2022-10-10T19:41:55.903Z,7.69
2022-10-10T19:44:24.660Z,7.71
2022-10-10T19:46:56.465Z,7.69
2022-10-10T19:49:25.376Z,7.64
2022-10-10T19:51:54.702Z,7.59
2022-10-10T19:54:23.498Z,7.56
2022-10-10T19:56:52.829Z,7.52
2022-10-10T19:59:21.577Z,7.48
2022-10-10T20:01:53.467Z,7.44
2022-10-10T20:04:23.839Z,7.38
2022-10-10T20:06:52.635Z,7.36
2022-10-10T20:09:21.591Z,7.35
2022-10-10T20:11:50.352Z,7.34
2022-10-10T20:14:19.057Z,7.32
2022-10-10T20:16:47.880Z,7.33
2022-10-10T20:19:16.501Z,7.32
2022-10-10T20:21:46.984Z,7.29
2022-10-10T20:24:16.058Z,7.31
2022-10-10T20:26:44.958Z,7.33
2022-10-10T20:29:15.483Z,7.34
2022-10-10T20:31:44.347Z,7.36
2022-10-10T20:34:13.898Z,7.38
2022-10-10T20:36:43.041Z,7.42
2022-10-10T20:39:15.264Z,7.44
2022-10-10T20:41:44.255Z,7.46
2022-10-10T20:44:14.777Z,7.46
2022-10-10T20:46:45.921Z,7.48
2022-10-10T20:49:16.991Z,7.53
2022-10-10T20:51:48.920Z,7.55
2022-10-10T20:54:20.571Z,7.58
2022-10-10T20:56:50.018Z,7.59
2022-10-10T20:59:19.104Z,7.60
2022-10-10T21:01:47.953Z,7.67
2022-10-10T21:04:17.034Z,7.72
2022-10-10T21:06:46.711Z,7.73
2022-10-10T21:09:16.740Z,7.72
2022-10-10T21:11:50.568Z,7.73
2022-10-10T21:14:19.800Z,7.71
2022-10-10T21:16:50.943Z,7.72
2022-10-10T21:19:20.449Z,7.72
2022-10-10T21:21:49.258Z,7.70
2022-10-10T21:24:18.577Z,7.69
2022-10-10T21:26:50.505Z,7.72
2022-10-10T21:29:23.069Z,7.74
2022-10-10T21:31:51.941Z,7.75
2022-10-10T21:34:20.775Z,7.74
2022-10-10T21:36:50.177Z,7.71
2022-10-10T21:39:19.209Z,7.69
2022-10-10T21:41:49.407Z,7.66
2022-10-10T21:44:18.357Z,7.60
2022-10-10T21:46:46.971Z,7.58
2022-10-10T21:49:15.705Z,7.55
2022-10-10T21:51:46.810Z,7.55
2022-10-10T21:54:16.041Z,7.53
2022-10-10T21:56:45.455Z,7.53
2022-10-10T21:59:17.633Z,7.52
2022-10-10T22:01:46.315Z,7.51
2022-10-10T22:04:15.180Z,7.49
2022-10-10T22:06:44.844Z,7.50
2022-10-10T22:09:13.575Z,7.48
2022-10-10T22:11:42.574Z,7.45
2022-10-10T22:14:11.618Z,7.41
2022-10-10T22:16:41.781Z,7.43
2022-10-10T22:19:11.090Z,7.42
2022-10-10T22:21:40.125Z,7.39
2022-10-10T22:24:09.814Z,7.38
2022-10-10T22:26:38.780Z,7.36
2022-10-10T22:29:07.431Z,7.35
2022-10-10T22:31:37.949Z,7.33
2022-10-10T22:34:09.720Z,7.31
2022-10-10T22:36:38.287Z,7.29
2022-10-10T22:39:09.046Z,7.26
2022-10-10T22:41:38.239Z,7.20
2022-10-10T22:44:06.973Z,7.18
2022-10-10T22:46:35.660Z,7.14
2022-10-10T22:49:04.657Z,7.12
2022-10-10T22:51:34.732Z,7.07
2022-10-10T22:54:03.437Z,7.10
2022-10-10T22:56:32.110Z,7.08
2022-10-10T22:59:00.674Z,7.10
2022-10-10T23:01:29.452Z,7.09
2022-10-10T23:04:00.752Z,7.11
2022-10-10T23:06:29.376Z,7.12
2022-10-10T23:08:59.501Z,7.13
2022-10-10T23:11:28.439Z,7.16
2022-10-10T23:13:57.380Z,7.17
2022-10-10T23:16:25.994Z,7.16
2022-10-10T23:18:54.692Z,7.14
2022-10-10T23:21:23.274Z,7.12
2022-10-10T23:23:52.539Z,7.09
2022-10-10T23:26:22.554Z,7.11
2022-10-10T23:28:52.081Z,7.11
2022-10-10T23:31:20.752Z,7.09
2022-10-10T23:33:49.318Z,7.08
2022-10-10T23:36:18.593Z,7.04
2022-10-10T23:38:47.757Z,7.01
2022-10-10T23:41:16.361Z,6.97
2022-10-10T23:43:46.807Z,6.95
2022-10-10T23:46:16.062Z,6.98
2022-10-10T23:48:44.660Z,6.99
2022-10-10T23:51:13.427Z,6.99
2022-10-10T23:53:41.854Z,6.99
2022-10-10T23:56:10.434Z,7.04
2022-10-10T23:58:39.042Z,7.03
